Terminal Aerodrome Forecast
Issued by NWS Milwaukee/Sullivan, WI

Home | Current Version | Previous Version | Text Only | Print | Product List | Glossary On
Versions: 1 2 3 4 5 6 7 8 9 10 11 12 13 14 15 16 17 18 19 20 21 22 23 24 25
000
FTUS43 KMKX 181726
TAFMSN
TAF
KMSN 181726Z 1818/1918 17016G27KT P6SM BKN150
     FM182100 18019G30KT P6SM FEW250
     FM182300 18017G27KT P6SM SCT250
     FM190700 19008KT P6SM BKN060 WS020/22040KT
     FM190900 19006KT P6SM BKN035
     FM191300 16005KT P6SM OVC003
     FM191400 14005KT 1/2SM FG OVC003
     FM191500 12005KT 3/4SM -RA BR OVC003=

USA.gov is the U.S. government's official web portal to all federal, state and local government web resources and services.